createdAt,value
2022-09-22T00:00:18.952Z,100.00
2022-09-22T00:01:29.100Z,100.00
2022-09-22T00:02:32.894Z,100.00
2022-09-22T00:03:46.408Z,100.00
2022-09-22T00:04:49.987Z,100.00
2022-09-22T00:06:02.747Z,100.00
2022-09-22T00:07:06.558Z,100.00
2022-09-22T00:08:10.201Z,100.00
2022-09-22T00:09:18.890Z,100.00
2022-09-22T00:10:23.244Z,100.00
2022-09-22T00:11:31.437Z,100.00
2022-09-22T00:12:37.135Z,100.00
2022-09-22T00:13:43.493Z,100.00
2022-09-22T00:14:47.130Z,100.00
2022-09-22T00:15:50.674Z,100.00
2022-09-22T00:16:58.833Z,100.00
2022-09-22T00:18:02.456Z,100.00
2022-09-22T00:19:21.597Z,100.00
2022-09-22T00:20:25.197Z,100.00
2022-09-22T00:21:31.177Z,100.00
2022-09-22T00:22:34.870Z,100.00
2022-09-22T00:23:41.303Z,100.00
2022-09-22T00:24:45.705Z,100.00
2022-09-22T00:25:49.924Z,100.00
2022-09-22T00:26:57.611Z,100.00
2022-09-22T00:28:02.907Z,100.00
2022-09-22T00:29:09.574Z,100.00
2022-09-22T00:30:14.942Z,100.00
2022-09-22T00:31:25.950Z,100.00
2022-09-22T00:32:29.725Z,100.00
2022-09-22T00:33:34.317Z,100.00
2022-09-22T00:34:38.089Z,100.00
2022-09-22T00:35:41.799Z,100.00
2022-09-22T00:36:46.040Z,100.00
2022-09-22T00:37:49.644Z,100.00
2022-09-22T00:39:00.677Z,100.00
2022-09-22T00:40:05.273Z,100.00
2022-09-22T00:41:25.115Z,100.00
2022-09-22T00:42:28.806Z,100.00
2022-09-22T00:43:38.542Z,100.00
2022-09-22T00:44:45.182Z,100.00
2022-09-22T00:46:13.142Z,100.00
2022-09-22T00:47:37.947Z,100.00
2022-09-22T00:48:58.133Z,100.00
2022-09-22T00:50:17.509Z,100.00
2022-09-22T00:51:27.654Z,100.00
2022-09-22T00:52:46.551Z,100.00
2022-09-22T00:53:52.774Z,100.00
2022-09-22T00:55:02.755Z,100.00
2022-09-22T00:56:29.999Z,100.00
2022-09-22T00:57:37.735Z,100.00
2022-09-22T00:58:54.839Z,100.00
2022-09-22T01:00:01.195Z,100.00
2022-09-22T01:01:07.337Z,100.00
2022-09-22T01:02:11.867Z,100.00
2022-09-22T01:03:24.059Z,100.00
2022-09-22T01:04:31.894Z,100.00
2022-09-22T01:05:37.932Z,100.00
2022-09-22T01:06:46.502Z,100.00
2022-09-22T01:07:50.883Z,100.00
2022-09-22T01:08:58.504Z,100.00
2022-09-22T01:10:02.496Z,100.00
2022-09-22T01:11:08.040Z,100.00
2022-09-22T01:12:16.902Z,100.00
2022-09-22T01:13:58.123Z,100.00
2022-09-22T01:15:07.396Z,100.00
2022-09-22T01:16:34.715Z,100.00
2022-09-22T01:17:56.259Z,100.00
2022-09-22T01:19:21.550Z,100.00
2022-09-22T01:20:48.945Z,100.00
2022-09-22T01:22:33.236Z,100.00
2022-09-22T01:24:14.884Z,100.00
2022-09-22T01:25:29.952Z,100.00
2022-09-22T01:27:12.212Z,100.00
2022-09-22T01:28:34.150Z,100.00
2022-09-22T01:30:08.469Z,100.00
2022-09-22T01:31:27.662Z,100.00
2022-09-22T01:32:37.176Z,100.00
2022-09-22T01:34:17.083Z,100.00
2022-09-22T01:35:50.959Z,100.00
2022-09-22T01:37:10.217Z,100.00
2022-09-22T01:38:46.798Z,100.00
2022-09-22T01:40:06.115Z,100.00
2022-09-22T01:41:42.853Z,100.00
2022-09-22T01:43:28.491Z,100.00
2022-09-22T01:44:57.087Z,100.00
2022-09-22T01:46:18.364Z,100.00
2022-09-22T01:47:35.981Z,100.00
2022-09-22T01:48:47.254Z,100.00
2022-09-22T01:50:06.163Z,100.00
2022-09-22T01:51:27.753Z,100.00
2022-09-22T01:52:36.520Z,100.00
2022-09-22T01:53:55.874Z,100.00
2022-09-22T01:55:19.444Z,100.00
2022-09-22T01:56:28.254Z,100.00
2022-09-22T01:58:03.760Z,100.00
2022-09-22T01:59:12.084Z,100.00
2022-09-22T02:00:16.688Z,100.00
2022-09-22T02:01:30.915Z,100.00
2022-09-22T02:03:07.166Z,100.00
2022-09-22T02:04:21.770Z,100.00
2022-09-22T02:05:45.401Z,100.00
2022-09-22T02:06:59.948Z,100.00
2022-09-22T02:08:13.362Z,100.00
2022-09-22T02:09:22.798Z,100.00
2022-09-22T02:10:36.899Z,100.00
2022-09-22T02:11:41.105Z,100.00
2022-09-22T02:12:45.019Z,100.00
2022-09-22T02:13:48.631Z,100.00
2022-09-22T02:14:52.754Z,100.00
2022-09-22T02:16:02.701Z,100.00
2022-09-22T02:17:06.333Z,100.00
2022-09-22T02:18:20.290Z,100.00
2022-09-22T02:19:37.026Z,100.00
2022-09-22T02:20:41.727Z,100.00
2022-09-22T02:21:51.085Z,100.00
2022-09-22T02:22:55.167Z,100.00
2022-09-22T02:24:01.099Z,100.00
2022-09-22T02:25:05.885Z,100.00
2022-09-22T02:26:12.486Z,100.00
2022-09-22T02:27:27.459Z,100.00
2022-09-22T02:28:35.265Z,100.00
2022-09-22T02:29:48.065Z,100.00
2022-09-22T02:31:17.906Z,100.00
2022-09-22T02:32:21.448Z,100.00
2022-09-22T02:33:28.123Z,100.00
2022-09-22T02:34:32.435Z,100.00
2022-09-22T02:35:40.277Z,100.00
2022-09-22T02:37:04.116Z,100.00
2022-09-22T02:38:26.428Z,100.00
2022-09-22T02:39:45.434Z,100.00
2022-09-22T02:41:12.951Z,100.00
2022-09-22T02:42:31.192Z,100.00
2022-09-22T02:43:52.586Z,100.00
2022-09-22T02:45:22.240Z,100.00
2022-09-22T02:46:43.463Z,100.00
2022-09-22T02:48:10.346Z,100.00
2022-09-22T02:49:18.968Z,100.00
2022-09-22T02:50:29.022Z,100.00
2022-09-22T02:51:34.620Z,100.00
2022-09-22T02:52:40.812Z,100.00
2022-09-22T02:53:45.027Z,100.00
2022-09-22T02:54:49.131Z,100.00
2022-09-22T02:55:52.915Z,100.00
2022-09-22T02:56:56.666Z,100.00
2022-09-22T02:58:00.153Z,100.00
2022-09-22T02:59:03.704Z,100.00
2022-09-22T03:00:08.562Z,100.00
2022-09-22T03:01:17.337Z,100.00
2022-09-22T03:02:21.233Z,100.00
2022-09-22T03:03:24.805Z,100.00
2022-09-22T03:04:29.302Z,100.00
2022-09-22T03:05:33.300Z,100.00
2022-09-22T03:06:38.496Z,100.00
2022-09-22T03:07:42.140Z,100.00
2022-09-22T03:08:45.629Z,100.00
2022-09-22T03:09:49.407Z,100.00
2022-09-22T03:10:53.271Z,100.00
2022-09-22T03:11:56.801Z,100.00
2022-09-22T03:13:17.430Z,100.00
2022-09-22T03:14:21.305Z,100.00
2022-09-22T03:15:27.266Z,100.00
2022-09-22T03:16:31.296Z,100.00
2022-09-22T03:17:35.436Z,100.00
2022-09-22T03:18:39.031Z,100.00
2022-09-22T03:19:42.689Z,100.00
2022-09-22T03:20:46.485Z,100.00
2022-09-22T03:21:50.435Z,100.00
2022-09-22T03:22:54.019Z,100.00
2022-09-22T03:23:57.905Z,100.00
2022-09-22T03:25:01.513Z,100.00
2022-09-22T03:26:05.688Z,100.00
2022-09-22T03:27:09.607Z,100.00
2022-09-22T03:28:13.391Z,100.00
2022-09-22T03:29:16.935Z,100.00
2022-09-22T03:30:20.620Z,100.00
2022-09-22T03:31:24.896Z,100.00
2022-09-22T03:32:28.722Z,100.00
2022-09-22T03:33:32.797Z,100.00
2022-09-22T03:34:36.392Z,100.00
2022-09-22T03:35:40.404Z,100.00
2022-09-22T03:36:44.034Z,100.00
2022-09-22T03:37:48.105Z,100.00
2022-09-22T03:38:52.501Z,100.00
2022-09-22T03:39:56.104Z,100.00
2022-09-22T03:41:01.445Z,100.00
2022-09-22T03:42:06.148Z,100.00
2022-09-22T03:43:15.916Z,100.00
2022-09-22T03:44:20.718Z,100.00
2022-09-22T03:45:25.098Z,100.00
2022-09-22T03:46:30.107Z,100.00
2022-09-22T03:47:33.760Z,100.00
2022-09-22T03:48:41.676Z,100.00
2022-09-22T03:49:49.089Z,100.00
2022-09-22T03:50:52.965Z,100.00
2022-09-22T03:51:56.835Z,100.00
2022-09-22T03:53:00.725Z,100.00
2022-09-22T03:54:04.943Z,100.00
2022-09-22T03:55:10.324Z,100.00
2022-09-22T03:56:16.139Z,100.00
2022-09-22T03:57:20.049Z,100.00
2022-09-22T03:58:23.577Z,100.00
2022-09-22T03:59:27.316Z,100.00
2022-09-22T04:00:30.876Z,100.00
2022-09-22T04:01:34.486Z,100.00
2022-09-22T04:02:38.083Z,100.00
2022-09-22T04:03:42.025Z,100.00
2022-09-22T04:04:46.505Z,100.00
2022-09-22T04:05:51.722Z,100.00
2022-09-22T04:06:55.458Z,100.00
2022-09-22T04:07:59.530Z,100.00
2022-09-22T04:09:03.976Z,100.00
2022-09-22T04:10:08.742Z,100.00
2022-09-22T04:11:12.339Z,100.00
2022-09-22T04:12:16.559Z,100.00
2022-09-22T04:13:20.856Z,100.00
2022-09-22T04:14:24.564Z,100.00
2022-09-22T04:15:28.335Z,100.00
2022-09-22T04:16:32.087Z,100.00
2022-09-22T04:17:37.253Z,100.00
2022-09-22T04:18:41.412Z,100.00
2022-09-22T04:19:47.056Z,100.00
2022-09-22T04:20:51.664Z,100.00
2022-09-22T04:21:57.468Z,100.00
2022-09-22T04:23:01.331Z,100.00
2022-09-22T04:24:10.504Z,100.00
2022-09-22T04:25:14.095Z,100.00
2022-09-22T04:26:18.070Z,100.00
2022-09-22T04:27:21.612Z,100.00
2022-09-22T04:28:25.902Z,100.00
2022-09-22T04:29:29.701Z,100.00
2022-09-22T04:30:35.020Z,100.00
2022-09-22T04:31:40.588Z,100.00
2022-09-22T04:32:45.310Z,100.00
2022-09-22T04:33:49.118Z,100.00
2022-09-22T04:34:52.762Z,100.00
2022-09-22T04:35:56.737Z,100.00
2022-09-22T04:37:03.517Z,100.00
2022-09-22T04:38:07.230Z,100.00
2022-09-22T04:39:11.829Z,100.00
2022-09-22T04:40:15.521Z,100.00
2022-09-22T04:41:19.320Z,100.00
2022-09-22T04:42:24.178Z,100.00
2022-09-22T04:43:28.120Z,100.00
2022-09-22T04:44:34.981Z,100.00
2022-09-22T04:45:39.918Z,100.00
2022-09-22T04:46:46.334Z,100.00
2022-09-22T04:47:53.208Z,100.00
2022-09-22T04:48:57.094Z,100.00
2022-09-22T04:50:01.085Z,100.00
2022-09-22T04:51:04.745Z,100.00
2022-09-22T04:52:08.323Z,100.00
2022-09-22T04:53:13.596Z,100.00
2022-09-22T04:54:17.206Z,100.00
2022-09-22T04:55:22.836Z,100.00
2022-09-22T04:56:29.761Z,100.00
2022-09-22T04:57:33.454Z,100.00
2022-09-22T04:58:37.931Z,100.00
2022-09-22T04:59:41.688Z,100.00
2022-09-22T05:00:45.324Z,100.00
2022-09-22T05:01:49.010Z,100.00
2022-09-22T05:02:53.182Z,100.00
2022-09-22T05:03:57.212Z,100.00
2022-09-22T05:05:00.885Z,100.00
2022-09-22T05:06:08.286Z,100.00
2022-09-22T05:07:11.929Z,100.00
2022-09-22T05:08:16.391Z,100.00
2022-09-22T05:09:21.139Z,100.00
2022-09-22T05:10:25.445Z,100.00
2022-09-22T05:11:30.339Z,100.00
2022-09-22T05:12:36.419Z,100.00
2022-09-22T05:13:41.318Z,100.00
2022-09-22T05:14:45.309Z,100.00
2022-09-22T05:15:49.001Z,100.00
2022-09-22T05:16:53.275Z,100.00
2022-09-22T05:17:56.890Z,100.00
2022-09-22T05:19:00.737Z,100.00
2022-09-22T05:20:06.778Z,100.00
2022-09-22T05:21:10.498Z,100.00
2022-09-22T05:22:14.234Z,100.00
2022-09-22T05:23:18.064Z,100.00
2022-09-22T05:24:22.486Z,100.00
2022-09-22T05:25:27.048Z,100.00
2022-09-22T05:26:34.457Z,100.00
2022-09-22T05:27:48.364Z,100.00
2022-09-22T05:28:52.424Z,100.00
2022-09-22T05:29:56.024Z,100.00
2022-09-22T05:31:00.046Z,100.00
2022-09-22T05:32:03.670Z,100.00
2022-09-22T05:33:07.381Z,100.00
2022-09-22T05:34:10.912Z,100.00
2022-09-22T05:35:21.290Z,100.00
2022-09-22T05:36:25.404Z,100.00
2022-09-22T05:37:31.930Z,100.00
2022-09-22T05:38:35.461Z,100.00
2022-09-22T05:39:39.022Z,100.00
2022-09-22T05:40:47.375Z,100.00
2022-09-22T05:41:51.488Z,100.00
2022-09-22T05:42:56.141Z,100.00
2022-09-22T05:44:00.221Z,100.00
2022-09-22T05:45:04.019Z,100.00
2022-09-22T05:46:07.763Z,100.00
2022-09-22T05:47:12.327Z,100.00
2022-09-22T05:48:16.098Z,99.84
2022-09-22T05:49:21.902Z,100.00
2022-09-22T05:50:25.775Z,99.88
2022-09-22T05:51:29.300Z,99.45
2022-09-22T05:52:34.104Z,99.69
2022-09-22T05:53:38.574Z,99.42
2022-09-22T05:54:43.100Z,99.17
2022-09-22T05:55:47.115Z,99.02
2022-09-22T05:56:52.755Z,98.71
2022-09-22T05:58:00.341Z,98.63
2022-09-22T05:59:07.770Z,98.71
2022-09-22T06:00:12.532Z,98.75
2022-09-22T06:01:17.020Z,97.88
2022-09-22T06:02:26.473Z,97.70
2022-09-22T06:03:31.820Z,96.98
2022-09-22T06:04:35.716Z,96.92
2022-09-22T06:05:39.806Z,96.89
2022-09-22T06:06:43.665Z,96.54
2022-09-22T06:07:49.196Z,96.57
2022-09-22T06:08:53.396Z,96.09
2022-09-22T06:09:57.418Z,95.79
2022-09-22T06:11:01.599Z,95.79
2022-09-22T06:12:08.941Z,95.30
2022-09-22T06:13:14.415Z,94.88
2022-09-22T06:14:18.559Z,94.77
2022-09-22T06:15:22.258Z,94.01
2022-09-22T06:16:26.189Z,93.62
2022-09-22T06:17:30.154Z,93.58
2022-09-22T06:18:33.847Z,93.74
2022-09-22T06:19:41.385Z,93.78
2022-09-22T06:20:47.080Z,93.45
2022-09-22T06:21:50.874Z,93.23
2022-09-22T06:22:57.652Z,93.72
2022-09-22T06:24:02.411Z,93.87
2022-09-22T06:25:09.332Z,94.02
2022-09-22T06:26:13.220Z,93.96
2022-09-22T06:27:17.351Z,93.70
2022-09-22T06:28:21.410Z,93.78
2022-09-22T06:29:26.378Z,93.69
2022-09-22T06:30:31.559Z,93.39
2022-09-22T06:31:38.389Z,92.72
2022-09-22T06:32:43.967Z,92.17
2022-09-22T06:33:51.460Z,92.41
2022-09-22T06:34:56.457Z,92.08
2022-09-22T06:36:02.340Z,91.74
2022-09-22T06:37:09.333Z,91.66
2022-09-22T06:38:15.695Z,91.35
2022-09-22T06:39:29.514Z,90.54
2022-09-22T06:40:38.018Z,90.62
2022-09-22T06:41:42.407Z,90.72
2022-09-22T06:42:46.637Z,90.73
2022-09-22T06:43:50.420Z,91.00
2022-09-22T06:44:54.105Z,90.38
2022-09-22T06:46:03.174Z,90.90
2022-09-22T06:47:08.894Z,90.84
2022-09-22T06:48:13.115Z,91.17
2022-09-22T06:49:16.938Z,91.16
2022-09-22T06:50:20.687Z,90.88
2022-09-22T07:04:23.594Z,83.33
2022-09-22T07:05:27.162Z,83.98
2022-09-22T07:06:30.756Z,84.08
2022-09-22T07:07:34.489Z,83.95
2022-09-22T07:08:39.595Z,84.02
2022-09-22T07:09:43.528Z,84.45
2022-09-22T07:10:57.258Z,84.67
2022-09-22T07:12:01.245Z,84.91
2022-09-22T07:13:06.525Z,84.42
2022-09-22T07:14:10.493Z,84.75
2022-09-22T07:15:14.377Z,84.62
2022-09-22T07:16:21.191Z,84.94
2022-09-22T07:17:31.934Z,83.78
2022-09-22T07:18:42.740Z,83.65
2022-09-22T07:19:52.437Z,83.26
2022-09-22T07:21:12.464Z,83.06
2022-09-22T07:22:17.520Z,82.09
2022-09-22T07:23:21.549Z,81.52
2022-09-22T07:24:27.928Z,81.42
2022-09-22T07:25:36.116Z,81.39
2022-09-22T07:26:41.202Z,81.36
2022-09-22T07:27:45.967Z,82.24
2022-09-22T07:28:54.639Z,79.32
2022-09-22T07:30:06.461Z,77.67
2022-09-22T07:31:16.597Z,75.82
2022-09-22T07:32:22.338Z,74.45
2022-09-22T07:33:27.119Z,73.61
2022-09-22T07:34:31.790Z,73.42
2022-09-22T07:35:42.292Z,72.66
2022-09-22T07:36:46.770Z,73.32
2022-09-22T07:37:57.356Z,73.10
2022-09-22T07:39:08.550Z,73.47
2022-09-22T07:40:14.820Z,74.11
2022-09-22T07:41:24.838Z,74.43
2022-09-22T07:42:30.368Z,75.35
2022-09-22T07:43:35.684Z,76.23
2022-09-22T07:45:04.790Z,76.80
2022-09-22T07:46:09.651Z,77.36
2022-09-22T07:47:13.324Z,77.63
2022-09-22T07:48:35.720Z,78.28
2022-09-22T07:49:39.651Z,78.36
2022-09-22T07:50:43.574Z,78.43
2022-09-22T07:51:47.883Z,78.27
2022-09-22T07:52:53.650Z,78.28
2022-09-22T07:54:10.025Z,78.59
2022-09-22T07:55:13.876Z,78.79
2022-09-22T07:56:21.467Z,78.85
2022-09-22T07:57:25.493Z,78.95
2022-09-22T07:58:30.496Z,78.98
2022-09-22T07:59:36.140Z,78.82
2022-09-22T08:00:40.151Z,78.83
2022-09-22T08:01:47.898Z,78.60
2022-09-22T08:02:57.916Z,78.08
2022-09-22T08:04:02.395Z,77.91
2022-09-22T08:05:10.036Z,78.01
2022-09-22T08:06:28.847Z,77.37
2022-09-22T08:07:36.563Z,77.21
2022-09-22T08:08:44.386Z,75.83
2022-09-22T08:09:48.414Z,75.55
2022-09-22T08:10:52.329Z,76.02
2022-09-22T08:11:56.412Z,76.58
2022-09-22T08:13:00.397Z,76.43
2022-09-22T08:14:11.597Z,76.55
2022-09-22T08:15:15.342Z,76.11
2022-09-22T08:16:28.373Z,75.45
2022-09-22T08:17:32.485Z,75.70
2022-09-22T08:18:37.341Z,75.93
2022-09-22T08:19:41.802Z,75.71
2022-09-22T08:20:45.487Z,74.26
2022-09-22T08:21:54.025Z,73.64
2022-09-22T08:23:05.818Z,74.40
2022-09-22T08:24:13.780Z,72.18
2022-09-22T08:25:18.201Z,70.66
2022-09-22T08:26:23.742Z,69.05
2022-09-22T08:27:27.897Z,67.41
2022-09-22T08:28:33.564Z,66.65
2022-09-22T08:29:37.416Z,67.02
2022-09-22T08:30:47.272Z,66.62
2022-09-22T08:31:51.633Z,66.83
2022-09-22T08:32:56.015Z,66.67
2022-09-22T08:34:00.132Z,66.96
2022-09-22T08:35:05.359Z,67.35
2022-09-22T08:36:11.012Z,67.90
2022-09-22T08:37:14.750Z,67.96
2022-09-22T08:38:19.427Z,68.65
2022-09-22T08:39:23.422Z,68.97
2022-09-22T08:40:29.059Z,69.50
2022-09-22T08:41:49.016Z,69.86
2022-09-22T08:42:55.937Z,70.12
2022-09-22T08:44:07.455Z,70.33
2022-09-22T08:45:36.777Z,70.55
2022-09-22T08:46:47.262Z,71.10
2022-09-22T08:48:18.752Z,71.51
2022-09-22T08:49:56.539Z,71.40
2022-09-22T08:51:32.388Z,71.45
2022-09-22T08:52:54.503Z,71.23
2022-09-22T08:54:09.977Z,71.23
2022-09-22T08:55:28.638Z,70.90
2022-09-22T08:56:47.138Z,71.18
2022-09-22T08:58:04.129Z,71.27
2022-09-22T08:59:23.203Z,71.03
2022-09-22T09:00:42.746Z,71.12
2022-09-22T09:01:51.682Z,71.17
2022-09-22T09:03:50.623Z,68.69
2022-09-22T09:05:21.752Z,61.86
2022-09-22T09:06:40.245Z,54.58
2022-09-22T09:07:58.978Z,50.64
2022-09-22T09:09:05.284Z,47.62
2022-09-22T09:10:48.788Z,42.74
2022-09-22T09:12:11.807Z,39.49
2022-09-22T09:13:48.947Z,36.89
2022-09-22T09:15:39.839Z,33.71
2022-09-22T09:16:51.938Z,33.42
2022-09-22T09:18:03.640Z,32.35
2022-09-22T09:19:18.457Z,30.37
2022-09-22T09:20:30.964Z,31.14
2022-09-22T09:21:40.891Z,31.11
2022-09-22T09:22:56.189Z,30.01
2022-09-22T09:25:43.543Z,31.31
2022-09-22T09:26:52.597Z,31.06
2022-09-22T09:28:04.434Z,32.63
2022-09-22T09:29:21.264Z,33.51
2022-09-22T09:30:25.266Z,34.88
2022-09-22T09:31:41.716Z,35.52
2022-09-22T09:33:00.678Z,36.61
2022-09-22T09:34:13.514Z,37.90
2022-09-22T09:35:29.229Z,38.63
2022-09-22T09:36:44.903Z,39.85
2022-09-22T09:37:52.238Z,40.11
2022-09-22T09:39:00.323Z,40.99
2022-09-22T09:40:15.469Z,42.13
2022-09-22T09:41:24.835Z,42.35
2022-09-22T09:42:37.060Z,42.30
2022-09-22T09:43:45.729Z,42.84
2022-09-22T09:44:55.165Z,43.35
2022-09-22T09:46:40.244Z,43.45
2022-09-22T09:48:05.387Z,43.81
2022-09-22T09:49:16.899Z,44.54
2022-09-22T09:50:32.293Z,44.47
2022-09-22T09:51:40.333Z,45.29
2022-09-22T09:52:45.648Z,45.48
2022-09-22T09:53:52.505Z,45.95
2022-09-22T09:54:56.333Z,46.24
2022-09-22T09:56:29.199Z,47.09
2022-09-22T09:57:32.955Z,47.80
2022-09-22T09:59:19.239Z,48.85
2022-09-22T10:00:33.052Z,50.01
2022-09-22T10:01:43.358Z,50.87
2022-09-22T10:03:05.312Z,51.61
2022-09-22T10:04:35.604Z,52.60
2022-09-22T10:05:39.675Z,53.01
2022-09-22T10:06:43.755Z,53.54
2022-09-22T10:07:53.965Z,53.79
2022-09-22T10:08:58.618Z,54.57
2022-09-22T10:10:32.877Z,55.62
2022-09-22T10:11:38.321Z,55.09
2022-09-22T10:12:49.379Z,55.36
2022-09-22T10:13:57.702Z,55.67
2022-09-22T10:15:02.399Z,56.02
2022-09-22T10:16:29.748Z,56.70
2022-09-22T10:17:45.562Z,56.41
2022-09-22T10:19:22.731Z,56.99
2022-09-22T10:20:34.170Z,57.59
2022-09-22T10:21:37.909Z,57.44
2022-09-22T10:22:42.856Z,57.72
2022-09-22T10:23:50.274Z,57.73
2022-09-22T10:25:05.704Z,57.68
2022-09-22T10:26:28.653Z,57.83
2022-09-22T10:27:33.175Z,57.77
2022-09-22T10:28:37.114Z,57.86
2022-09-22T10:29:42.273Z,57.40
2022-09-22T10:31:04.071Z,57.23
2022-09-22T10:32:16.987Z,57.55
2022-09-22T10:33:22.990Z,57.19
2022-09-22T10:36:12.348Z,57.07
2022-09-22T10:37:30.426Z,56.82
2022-09-22T10:38:43.592Z,56.38
2022-09-22T10:39:59.346Z,56.70
2022-09-22T10:41:35.513Z,56.61
2022-09-22T10:42:48.326Z,56.53
2022-09-22T10:44:21.226Z,56.74
2022-09-22T10:46:08.733Z,57.11
2022-09-22T10:47:32.483Z,57.32
2022-09-22T10:48:43.767Z,57.22
2022-09-22T10:50:18.664Z,57.57
2022-09-22T10:52:01.675Z,57.48
2022-09-22T10:53:22.034Z,58.00
2022-09-22T10:54:59.927Z,58.16
2022-09-22T10:56:37.930Z,57.89
2022-09-22T10:58:08.341Z,58.42
2022-09-22T10:59:20.461Z,59.11
2022-09-22T11:00:27.517Z,59.93
2022-09-22T11:02:03.133Z,60.80
2022-09-22T11:03:33.214Z,63.48
2022-09-22T11:05:03.563Z,64.65
2022-09-22T11:07:00.462Z,66.59
2022-09-22T11:08:31.782Z,66.68
2022-09-22T11:10:01.617Z,67.45
2022-09-22T11:12:07.822Z,67.98
2022-09-22T11:13:52.074Z,68.57
2022-09-22T11:17:06.223Z,71.48
2022-09-22T11:18:56.368Z,72.27
2022-09-22T11:20:19.667Z,72.02
2022-09-22T11:21:53.509Z,73.15
2022-09-22T11:23:12.803Z,73.44
2022-09-22T11:24:44.662Z,73.73
2022-09-22T11:25:55.552Z,74.79
2022-09-22T11:27:02.754Z,74.66
2022-09-22T11:28:54.908Z,76.86
2022-09-22T11:30:20.669Z,77.85
2022-09-22T11:31:42.746Z,76.65
2022-09-22T11:33:35.400Z,76.93
2022-09-22T11:35:18.216Z,76.82
2022-09-22T11:37:00.082Z,77.55
2022-09-22T11:38:35.114Z,78.16
2022-09-22T11:39:53.635Z,78.41
2022-09-22T11:41:18.340Z,77.89
2022-09-22T11:42:40.742Z,77.95
2022-09-22T11:44:15.766Z,77.78
2022-09-22T11:45:37.611Z,78.07
2022-09-22T11:47:11.020Z,79.34
2022-09-22T11:48:47.050Z,78.71
2022-09-22T11:50:31.043Z,78.30
2022-09-22T11:51:58.107Z,78.70
2022-09-22T11:53:50.214Z,79.57
2022-09-22T11:55:30.917Z,79.10
2022-09-22T11:56:51.828Z,79.04
2022-09-22T11:58:05.403Z,78.92
2022-09-22T11:59:57.740Z,79.69
2022-09-22T12:01:34.767Z,80.06
2022-09-22T12:02:46.793Z,80.02
2022-09-22T12:04:09.669Z,80.13
2022-09-22T12:05:52.410Z,80.66
2022-09-22T12:06:59.393Z,80.43
2022-09-22T12:08:11.041Z,80.64
2022-09-22T12:09:48.712Z,80.70
2022-09-22T12:10:53.037Z,80.79
2022-09-22T12:12:01.517Z,81.02
2022-09-22T12:13:31.881Z,81.04
2022-09-22T12:14:37.015Z,80.96
2022-09-22T12:16:10.543Z,81.48
2022-09-22T12:17:33.031Z,81.26
2022-09-22T12:19:19.398Z,81.30
2022-09-22T12:20:50.602Z,81.00
2022-09-22T12:22:35.719Z,80.81
2022-09-22T12:23:47.657Z,80.32
2022-09-22T12:24:54.212Z,79.95
2022-09-22T12:26:06.317Z,80.24
2022-09-22T12:27:23.316Z,80.07
2022-09-22T12:28:31.827Z,80.23
2022-09-22T12:29:37.376Z,80.15
2022-09-22T12:31:12.884Z,80.75
2022-09-22T12:32:51.099Z,80.94
2022-09-22T12:33:56.783Z,80.82
2022-09-22T12:35:04.645Z,80.68
2022-09-22T12:36:08.600Z,81.08
2022-09-22T12:37:29.806Z,80.96
2022-09-22T12:38:34.904Z,80.87
2022-09-22T12:39:47.019Z,80.81
2022-09-22T12:40:55.416Z,80.40
2022-09-22T12:42:20.350Z,80.54
2022-09-22T12:43:26.956Z,80.02
2022-09-22T12:44:43.355Z,79.75
2022-09-22T12:45:49.501Z,79.16
2022-09-22T12:47:01.909Z,79.44
2022-09-22T12:48:32.790Z,79.05
2022-09-22T12:49:59.316Z,79.04
2022-09-22T12:51:33.977Z,78.75
2022-09-22T12:52:47.903Z,78.78
2022-09-22T12:53:52.737Z,78.54
2022-09-22T12:55:20.167Z,78.73
2022-09-22T12:56:47.419Z,77.83
2022-09-22T12:57:52.762Z,77.70
2022-09-22T12:58:56.628Z,77.91
2022-09-22T13:00:35.661Z,75.50
2022-09-22T13:01:39.424Z,75.99
2022-09-22T13:02:46.311Z,76.06
2022-09-22T13:03:51.362Z,75.75
2022-09-22T13:04:57.782Z,75.41
2022-09-22T13:06:21.928Z,74.54
2022-09-22T13:07:38.591Z,74.40
2022-09-22T13:08:45.176Z,74.66
2022-09-22T13:09:48.971Z,74.62
2022-09-22T13:11:01.420Z,73.53
2022-09-22T13:12:14.716Z,73.86
2022-09-22T13:13:45.378Z,73.90
2022-09-22T13:14:59.210Z,73.75
2022-09-22T13:16:14.944Z,73.45
2022-09-22T13:17:54.091Z,73.02
2022-09-22T13:19:00.216Z,73.01
2022-09-22T13:20:22.781Z,73.00
2022-09-22T13:21:34.044Z,72.98
2022-09-22T13:22:37.951Z,72.91
2022-09-22T13:24:00.425Z,72.41
2022-09-22T13:25:31.449Z,72.11
2022-09-22T13:26:38.581Z,71.96
2022-09-22T13:27:42.864Z,72.01
2022-09-22T13:29:00.664Z,72.02
2022-09-22T13:30:14.226Z,71.85
2022-09-22T13:31:19.209Z,71.90
2022-09-22T13:32:27.111Z,71.79
2022-09-22T13:33:36.298Z,71.96
2022-09-22T13:34:40.122Z,72.19
2022-09-22T13:35:46.095Z,71.79
2022-09-22T13:36:55.161Z,72.37
2022-09-22T13:38:00.698Z,72.42
2022-09-22T13:39:04.957Z,72.47
2022-09-22T13:40:11.313Z,72.39
2022-09-22T13:41:24.343Z,72.54
2022-09-22T13:42:32.864Z,72.68
2022-09-22T13:43:40.398Z,72.76
2022-09-22T13:44:59.147Z,72.96
2022-09-22T13:46:04.967Z,73.10
2022-09-22T13:47:23.888Z,73.21
2022-09-22T13:48:38.030Z,73.74
2022-09-22T13:49:51.416Z,74.12
2022-09-22T13:51:02.844Z,74.54
2022-09-22T13:52:24.949Z,75.38
2022-09-22T13:53:28.973Z,75.63
2022-09-22T13:54:40.731Z,75.95
2022-09-22T13:55:49.676Z,76.30
2022-09-22T13:56:55.808Z,76.82
2022-09-22T13:58:00.943Z,77.03
2022-09-22T13:59:05.692Z,77.75
2022-09-22T14:00:26.438Z,78.05
2022-09-22T14:01:31.516Z,77.82
2022-09-22T14:02:36.211Z,77.97
2022-09-22T14:03:40.166Z,78.77
2022-09-22T14:04:53.754Z,78.71
2022-09-22T14:06:11.789Z,79.17
2022-09-22T14:07:16.059Z,79.36
2022-09-22T14:08:30.199Z,79.91
2022-09-22T14:09:38.149Z,80.17
2022-09-22T14:10:44.606Z,80.59
2022-09-22T14:11:49.610Z,80.75
2022-09-22T14:12:53.891Z,80.87
2022-09-22T14:14:02.514Z,81.07
2022-09-22T14:15:43.681Z,81.60
2022-09-22T14:17:06.515Z,81.36
2022-09-22T14:18:19.673Z,81.30
2022-09-22T14:19:44.223Z,81.81
2022-09-22T14:20:49.588Z,81.61
2022-09-22T14:21:59.015Z,81.76
2022-09-22T14:23:03.821Z,81.66
2022-09-22T14:24:13.248Z,81.35
2022-09-22T14:26:52.805Z,81.30
2022-09-22T14:28:03.502Z,81.43
2022-09-22T14:29:23.381Z,81.24
2022-09-22T14:30:34.680Z,81.34
2022-09-22T14:31:46.464Z,81.32
2022-09-22T14:33:00.074Z,81.39
2022-09-22T14:34:10.468Z,81.28
2022-09-22T14:35:36.695Z,81.39
2022-09-22T14:36:45.918Z,81.82
2022-09-22T14:37:52.103Z,81.86
2022-09-22T14:39:09.923Z,82.02
2022-09-22T14:40:27.489Z,82.68
2022-09-22T14:41:38.129Z,82.79
2022-09-22T14:43:09.560Z,83.11
2022-09-22T14:44:44.397Z,83.10
2022-09-22T14:46:06.084Z,83.04
2022-09-22T14:47:28.135Z,83.45
2022-09-22T14:48:36.693Z,83.65
2022-09-22T14:49:44.342Z,83.90
2022-09-22T14:51:07.684Z,84.29
2022-09-22T14:52:30.898Z,84.48
2022-09-22T14:53:43.884Z,84.22
2022-09-22T14:54:47.864Z,84.22
2022-09-22T14:56:01.028Z,83.94
2022-09-22T14:57:08.880Z,84.17
2022-09-22T14:58:25.790Z,84.42
2022-09-22T14:59:55.486Z,84.42
2022-09-22T15:01:43.007Z,84.75
2022-09-22T15:02:55.463Z,84.47
2022-09-22T15:04:06.392Z,84.87
2022-09-22T15:05:29.837Z,85.22
2022-09-22T15:06:39.330Z,85.36
2022-09-22T15:07:49.134Z,85.49
2022-09-22T15:08:55.330Z,85.18
2022-09-22T15:10:28.515Z,86.12
2022-09-22T15:11:51.076Z,85.92
2022-09-22T15:13:18.542Z,86.14
2022-09-22T15:14:37.454Z,86.51
2022-09-22T15:15:50.812Z,86.30
2022-09-22T15:17:17.085Z,86.65
2022-09-22T15:18:22.007Z,86.71
2022-09-22T15:19:28.726Z,87.22
2022-09-22T15:20:52.191Z,87.16
2022-09-22T15:21:58.002Z,87.08
2022-09-22T15:23:45.112Z,87.08
2022-09-22T15:24:49.959Z,87.07
2022-09-22T15:25:56.363Z,87.41
2022-09-22T15:27:08.863Z,87.77
2022-09-22T15:28:24.131Z,87.69
2022-09-22T15:29:28.492Z,87.47
2022-09-22T15:30:33.509Z,87.50
2022-09-22T15:31:42.258Z,87.64
2022-09-22T15:32:48.372Z,87.77
2022-09-22T15:33:53.394Z,87.74
2022-09-22T15:34:58.571Z,87.70
2022-09-22T15:36:13.054Z,88.06
2022-09-22T15:37:22.776Z,87.77